createdAt,value
2022-11-11T10:57:38.236Z,37.82
2022-11-11T10:58:38.546Z,37.92
2022-11-11T10:59:38.846Z,38.02
2022-11-11T11:00:43.764Z,37.92
2022-11-11T11:01:40.440Z,37.92
2022-11-11T11:02:39.657Z,38.02
2022-11-11T11:03:39.948Z,38.12
2022-11-11T11:04:40.220Z,38.12
2022-11-11T11:05:40.497Z,38.22
2022-11-11T11:06:40.790Z,38.12
2022-11-11T11:07:40.967Z,38.22
2022-11-11T11:08:41.240Z,38.12
2022-11-11T11:09:41.520Z,38.12
2022-11-11T11:10:41.759Z,38.12
2022-11-11T11:11:42.151Z,38.12
2022-11-11T11:12:42.268Z,38.12
2022-11-11T11:13:42.530Z,38.12
2022-11-11T11:14:42.783Z,38.12
2022-11-11T11:15:43.038Z,38.12
2022-11-11T11:16:43.290Z,38.22
2022-11-11T11:17:43.540Z,38.12
2022-11-11T11:18:43.800Z,38.12
2022-11-11T11:19:44.051Z,38.22
2022-11-11T11:20:44.302Z,38.20
2022-11-11T11:21:44.553Z,38.20
2022-11-11T11:22:44.793Z,38.20
2022-11-11T11:23:45.055Z,38.20
2022-11-11T11:24:45.307Z,38.20
2022-11-11T11:25:45.553Z,38.20
2022-11-11T11:26:45.784Z,38.10
2022-11-11T11:27:46.025Z,38.10
2022-11-11T11:28:46.274Z,38.10
2022-11-11T11:29:46.515Z,38.10
2022-11-11T11:30:46.768Z,37.90
2022-11-11T11:31:47.027Z,38.00
2022-11-11T11:32:47.266Z,37.90
2022-11-11T11:33:47.507Z,37.90
2022-11-11T11:34:47.743Z,37.90
2022-11-11T11:35:47.976Z,38.00
2022-11-11T11:36:48.207Z,37.51
2022-11-11T11:37:48.467Z,37.21
2022-11-11T11:38:48.754Z,36.71
2022-11-11T11:39:48.995Z,36.71
2022-11-11T11:40:49.227Z,36.63
2022-11-11T11:41:49.478Z,36.72
2022-11-11T11:42:50.711Z,37.12
2022-11-11T11:43:50.006Z,37.02
2022-11-11T11:44:50.253Z,36.84
2022-11-11T11:45:50.499Z,36.84
2022-11-11T11:46:50.740Z,36.66
2022-11-11T11:48:09.512Z,37.06
2022-11-11T11:48:52.190Z,37.06
2022-11-11T11:49:51.372Z,37.36
2022-11-11T11:50:51.641Z,37.18
2022-11-11T11:51:51.882Z,37.27
2022-11-11T11:52:52.132Z,37.38
2022-11-11T11:53:52.361Z,37.38
2022-11-11T11:54:52.631Z,37.48
2022-11-11T11:55:52.882Z,37.59
2022-11-11T11:56:53.143Z,37.70
2022-11-11T11:57:53.404Z,37.79
2022-11-11T11:58:53.654Z,37.70
2022-11-11T11:59:53.908Z,37.90
2022-11-11T12:00:54.134Z,37.99
2022-11-11T12:01:54.436Z,37.79
2022-11-11T12:02:54.663Z,37.70
2022-11-11T12:03:54.925Z,37.79
2022-11-11T12:04:55.183Z,37.70
2022-11-11T12:05:55.434Z,37.79
2022-11-11T12:06:55.736Z,37.90
2022-11-11T12:07:55.957Z,38.01
2022-11-11T12:08:56.207Z,37.90
2022-11-11T12:09:56.447Z,37.99
2022-11-11T12:10:56.694Z,37.99
2022-11-11T12:11:56.938Z,37.99
2022-11-11T12:12:57.191Z,37.99
2022-11-11T12:13:57.439Z,38.09
2022-11-11T12:14:57.689Z,38.09
2022-11-11T12:15:57.939Z,38.09
2022-11-11T12:16:58.189Z,38.20
2022-11-11T12:17:58.428Z,38.29
2022-11-11T12:18:58.679Z,38.40
2022-11-11T12:19:58.929Z,38.49
2022-11-11T12:20:59.181Z,38.49
2022-11-11T12:22:01.936Z,38.59
2022-11-11T12:22:59.681Z,38.59
2022-11-11T12:23:59.941Z,38.59
2022-11-11T12:25:00.209Z,38.59
2022-11-11T12:26:00.463Z,38.59
2022-11-11T12:27:00.733Z,38.57
2022-11-11T12:28:00.991Z,38.57
2022-11-11T12:29:01.280Z,38.57
2022-11-11T12:30:01.523Z,38.68
2022-11-11T12:31:01.775Z,38.68
2022-11-11T12:32:02.024Z,38.68
2022-11-11T12:33:02.275Z,38.68
2022-11-11T12:34:02.534Z,38.78
2022-11-11T12:35:02.783Z,38.78
2022-11-11T12:36:03.034Z,38.78
2022-11-11T12:37:03.299Z,38.78
2022-11-11T12:38:03.546Z,38.98
2022-11-11T12:39:03.805Z,39.00
2022-11-11T12:40:04.057Z,39.00
2022-11-11T12:41:04.314Z,39.20
2022-11-11T12:42:04.566Z,39.31
2022-11-11T12:43:04.817Z,39.41
2022-11-11T12:44:05.056Z,39.51
2022-11-11T12:45:05.306Z,39.61
2022-11-11T12:46:05.588Z,39.73
2022-11-11T12:47:05.837Z,39.83
2022-11-11T12:48:06.098Z,39.93
2022-11-11T12:49:06.367Z,39.93
2022-11-11T12:50:06.627Z,40.03
2022-11-11T12:51:06.868Z,40.13
2022-11-11T12:52:07.158Z,40.13
2022-11-11T12:53:07.428Z,40.03
2022-11-11T12:54:07.686Z,40.05
2022-11-11T12:55:07.944Z,40.05
2022-11-11T12:56:08.190Z,40.15
2022-11-11T12:57:08.452Z,40.05
2022-11-11T12:58:08.702Z,40.05
2022-11-11T12:59:08.961Z,40.05
2022-11-11T13:00:09.222Z,40.05
2022-11-11T13:01:09.570Z,40.05
2022-11-11T13:02:09.684Z,40.15
2022-11-11T13:03:09.944Z,39.95
2022-11-11T13:04:10.203Z,39.95
2022-11-11T13:05:10.461Z,39.95
2022-11-11T13:06:10.724Z,39.75
2022-11-11T13:07:11.018Z,39.75
2022-11-11T13:08:11.153Z,39.63
2022-11-11T13:09:11.414Z,39.43
2022-11-11T13:10:11.719Z,38.93
2022-11-11T13:11:11.946Z,38.73
2022-11-11T13:12:17.992Z,38.73
2022-11-11T13:13:13.445Z,38.83
2022-11-11T13:14:12.657Z,38.83
2022-11-11T13:15:13.012Z,38.75
2022-11-11T13:16:13.154Z,38.35
2022-11-11T13:17:13.406Z,38.45
2022-11-11T13:18:13.668Z,38.25
2022-11-11T13:19:19.336Z,37.95
2022-11-11T13:20:15.181Z,37.45
2022-11-11T13:21:14.377Z,37.55
2022-11-11T13:22:14.642Z,37.65
2022-11-11T13:23:15.869Z,37.45
2022-11-11T13:24:15.189Z,37.35
2022-11-11T13:25:16.960Z,37.35
2022-11-11T13:26:15.689Z,37.35
2022-11-11T13:27:15.949Z,37.55
2022-11-11T13:28:16.252Z,37.65
2022-11-11T13:29:16.521Z,37.75
2022-11-11T13:30:16.782Z,37.65
2022-11-11T13:31:17.040Z,37.35
2022-11-11T13:32:17.299Z,37.25
2022-11-11T13:33:23.623Z,37.15
2022-11-11T13:34:18.793Z,36.57
2022-11-11T13:35:18.091Z,36.57
2022-11-11T13:36:18.343Z,36.36
2022-11-11T13:37:18.594Z,36.36
2022-11-11T13:38:18.844Z,36.36
2022-11-11T13:39:19.585Z,36.36
2022-11-11T13:40:19.372Z,36.36
2022-11-11T13:41:19.625Z,36.16
2022-11-11T13:42:19.874Z,36.26
2022-11-11T13:43:20.161Z,36.36
2022-11-11T13:44:20.415Z,36.26
2022-11-11T13:45:20.667Z,36.36
2022-11-11T13:46:20.917Z,36.36
2022-11-11T13:47:21.184Z,36.66
2022-11-11T13:48:21.448Z,36.87
2022-11-11T13:49:21.708Z,37.07
2022-11-11T13:50:21.958Z,37.07
2022-11-11T13:51:22.217Z,37.16
2022-11-11T13:52:26.788Z,37.57
2022-11-11T13:53:23.917Z,37.37
2022-11-11T13:54:22.976Z,37.27
2022-11-11T13:55:23.200Z,37.27
2022-11-11T13:56:23.460Z,36.96
2022-11-11T13:57:23.712Z,36.87
2022-11-11T13:58:23.969Z,36.96
2022-11-11T13:59:24.271Z,36.96
2022-11-11T14:00:24.418Z,36.96
2022-11-11T14:01:24.744Z,36.96
2022-11-11T14:02:24.979Z,37.07
2022-11-11T14:03:25.434Z,37.16
2022-11-11T14:04:25.553Z,37.16
2022-11-11T14:05:25.803Z,37.37
2022-11-11T14:06:26.033Z,37.27
2022-11-11T14:07:26.320Z,37.27
2022-11-11T14:08:26.582Z,37.37
2022-11-11T14:09:26.844Z,37.37
2022-11-11T14:10:27.104Z,37.27
2022-11-11T14:11:27.432Z,37.16
2022-11-11T14:12:27.715Z,37.16
2022-11-11T14:13:28.151Z,37.15
2022-11-11T14:14:28.175Z,37.25
2022-11-11T14:15:28.325Z,37.37
2022-11-11T14:16:28.585Z,37.57
2022-11-11T14:17:28.866Z,37.87
2022-11-11T14:18:29.127Z,38.07
2022-11-11T14:19:29.405Z,38.27
2022-11-11T14:20:29.657Z,38.47
2022-11-11T14:21:29.928Z,38.57
2022-11-11T14:22:30.196Z,38.57
2022-11-11T14:23:30.467Z,38.57
2022-11-11T14:24:30.740Z,38.67
2022-11-11T14:25:31.008Z,38.77
2022-11-11T14:26:31.269Z,38.97
2022-11-11T14:27:31.538Z,39.17
2022-11-11T14:28:31.799Z,39.47
2022-11-11T14:29:32.079Z,39.79
2022-11-11T14:30:32.340Z,39.99
2022-11-11T14:31:32.590Z,40.09
2022-11-11T14:32:32.852Z,40.29
2022-11-11T14:33:33.146Z,40.49
2022-11-11T14:34:33.402Z,40.49
2022-11-11T14:35:33.669Z,40.49
2022-11-11T14:36:33.936Z,40.29
2022-11-11T14:37:34.203Z,40.29
2022-11-11T14:38:34.473Z,40.29
2022-11-11T14:39:34.751Z,40.09
